| time (UTC) | temp C | wind direction | speed KPH | gust KPH | rain 1hr cm | rain 24hr cm | rain mn cm | humidity % | barometer mb |
| 20260505071537 | 12 | 311 | 3.2 | 9.7 | 0.08 | 0.23 | 0.13 | 64 | 1008.2 |
| 20260505070025 | 14 | 278 | 9.7 | 22.5 | 0.05 | 0.20 | 0.10 | 53 | 1007.1 |
| 20260505064518 | 14 | 290 | 6.4 | 19.3 | 0.05 | 0.20 | 0.10 | 55 | 1006.3 |
| 20260505063028 | 15 | 293 | 4.8 | 24.1 | 0.03 | 0.18 | 0.08 | 54 | 1005.5 |
| 20260505061515 | 15 | 263 | 6.4 | 24.1 | 0.00 | 0.15 | 0.05 | 57 | 1005.2 |
| 20260505060018 | 15 | 293 | 9.7 | 19.3 | 0.03 | 0.15 | 0.05 | 62 | 1004.4 |
| 20260505054504 | 15 | 271 | 4.8 | 16.1 | 0.13 | 0.15 | 0.05 | 69 | 1004.0 |
| 20260505053001 | 14 | 314 | 0.0 | 3.2 | 0.15 | 0.15 | 0.05 | 84 | 1003.9 |
| 20260505051557 | 14 | 285 | 1.6 | 4.8 | 0.15 | 0.15 | 0.05 | 81 | 1003.7 |
| 20260505041601 | 22 | 314 | 1.6 | 20.9 | 0.00 | 0.00 | 0.00 | 64 | 1002.5 |
| 20260505040049 | 21 | 306 | 1.6 | 9.7 | 0.00 | 0.00 | 0.00 | 68 | 1002.4 |
| 20260505034549 | 22 | 309 | 3.2 | 11.3 | 0.00 | 0.00 | 0.00 | 66 | 1001.8 |
| 20260505033050 | 22 | 295 | 6.4 | 12.9 | 0.00 | 0.00 | 0.00 | 65 | 1001.8 |
| 20260505031547 | 22 | 319 | 3.2 | 4.8 | 0.00 | 0.00 | 0.00 | 64 | 1001.7 |
| 20260505030057 | 21 | 314 | 0.0 | 1.6 | 0.00 | 0.00 | 0.00 | 63 | 1001.5 |
| 20260505024547 | 22 | 330 | 0.0 | 3.2 | 0.00 | 0.00 | 0.00 | 60 | 1001.4 |
| 20260505023046 | 22 | 269 | 1.6 | 3.2 | 0.00 | 0.00 | 0.00 | 58 | 1001.2 |
| 20260505021552 | 22 | 278 | 0.0 | 1.6 | 0.00 | 0.00 | 0.00 | 58 | 1000.9 |
| 20260505020052 | 23 | 281 | 0.0 | 4.8 | 0.00 | 0.00 | 0.00 | 56 | 1000.7 |
| 20260505014544 | 23 | 287 | 1.6 | 6.4 | 0.00 | 0.00 | 0.00 | 54 | 1000.5 |
| 20260505013043 | 24 | 313 | 3.2 | 4.8 | 0.00 | 0.00 | 0.00 | 52 | 1000.3 |
| 20260505011542 | 24 | 304 | 0.0 | 1.6 | 0.00 | 0.00 | 0.00 | 51 | 1000.2 |
| 20260505004545 | 25 | 310 | 0.0 | 1.6 | 0.00 | 0.00 | 0.00 | 47 | 999.9 |
| 20260505003048 | 26 | 275 | 0.0 | 1.6 | 0.00 | 0.00 | 0.00 | 45 | 999.8 |
| 20260505001541 | 26 | 283 | 0.0 | 1.6 | 0.00 | 0.00 | 0.00 | 45 | 999.8 |
| 20260505000045 | 26 | 315 | 0.0 | 3.2 | 0.00 | 0.00 | 0.00 | 45 | 999.8 |
| 20260504234538 | 26 | 304 | 0.0 | 3.2 | 0.00 | 0.00 | 0.00 | 45 | 999.8 |
| 20260504233045 | 27 | 298 | 0.0 | 4.8 | 0.00 | 0.00 | 0.00 | 44 | 999.8 |
| 20260504231536 | 27 | 281 | 0.0 | 9.7 | 0.00 | 0.00 | 0.00 | 42 | 999.8 |
| 20260504230034 | 27 | 92 | 1.6 | 6.4 | 0.00 | 0.00 | 0.00 | 41 | 999.8 |
| 20260504224536 | 27 | 316 | 1.6 | 9.7 | 0.00 | 0.00 | 0.00 | 41 | 999.8 |
| 20260504223033 | 27 | 281 | 1.6 | 4.8 | 0.00 | 0.00 | 0.00 | 44 | 999.9 |
| 20260504221528 | 27 | 321 | 1.6 | 14.5 | 0.00 | 0.00 | 0.00 | 45 | 1000.0 |
| 20260504220028 | 27 | 284 | 4.8 | 14.5 | 0.00 | 0.00 | 0.00 | 46 | 999.9 |
| 20260504214537 | 27 | 290 | 6.4 | 20.9 | 0.00 | 0.00 | 0.00 | 47 | 1000.1 |
| 20260504213028 | 27 | 291 | 3.2 | 20.9 | 0.00 | 0.00 | 0.00 | 46 | 1000.1 |
| 20260504211524 | 27 | 276 | 9.7 | 20.9 | 0.00 | 0.00 | 0.00 | 44 | 1000.2 |
| 20260504210023 | 28 | 308 | 4.8 | 9.7 | 0.00 | 0.00 | 0.00 | 38 | 1000.2 |
| 20260504204521 | 28 | 317 | 3.2 | 6.4 | 0.00 | 0.00 | 0.00 | 38 | 1000.3 |
| 20260504203021 | 28 | 291 | 11.3 | 19.3 | 0.00 | 0.00 | 0.00 | 38 | 1000.5 |
| 20260504201519 | 28 | 315 | 4.8 | 20.9 | 0.00 | 0.00 | 0.00 | 40 | 1000.5 |
| 20260504200020 | 28 | 309 | 3.2 | 19.3 | 0.00 | 0.00 | 0.00 | 39 | 1000.6 |
| 20260504194515 | 27 | 294 | 8.0 | 17.7 | 0.00 | 0.00 | 0.00 | 39 | 1000.6 |
| 20260504193013 | 27 | 323 | 6.4 | 17.7 | 0.00 | 0.00 | 0.00 | 41 | 1000.8 |
| 20260504191513 | 27 | 311 | 4.8 | 24.1 | 0.00 | 0.00 | 0.00 | 44 | 1000.8 |
| 20260504190011 | 27 | 333 | 8.0 | 22.5 | 0.00 | 0.00 | 0.00 | 44 | 1000.9 |
| 20260504184507 | 27 | 286 | 1.6 | 16.1 | 0.00 | 0.00 | 0.00 | 44 | 1001.0 |
| 20260504183007 | 27 | 292 | 1.6 | 8.0 | 0.00 | 0.00 | 0.00 | 44 | 1001.2 |
| 20260504181503 | 26 | 326 | 3.2 | 17.7 | 0.00 | 0.00 | 0.00 | 43 | 1001.3 |
| 20260504180001 | 26 | 289 | 4.8 | 12.9 | 0.00 | 0.00 | 0.00 | 45 | 1001.5 |
| 20260504174559 | 26 | 300 | 4.8 | 14.5 | 0.00 | 0.00 | 0.00 | 45 | 1001.6 |
| 20260504173056 | 25 | 282 | 6.4 | 17.7 | 0.00 | 0.00 | 0.00 | 46 | 1001.7 |
| 20260504171554 | 25 | 309 | 1.6 | 11.3 | 0.00 | 0.00 | 0.00 | 47 | 1001.8 |
| 20260504081554 | 17 | 271 | 4.8 | 9.7 | 0.00 | 0.00 | 0.00 | 56 | 1003.8 |